Time;durP1;ratioP1;P1;durP2;ratioP2;P2;SDS_P1;SDS_P2;PMS_P1;PMS_P2;Temp;Humidity;BMP_temperature;BMP_pressure;BME280_temperature;BME280_humidity;BME280_pressure;Samples;Min_cycle;Max_cycle;Signal;HPM_P1;HPM_P2
2023/04/22 00:02:15;;;;;;;15.38;11.20;;;;;;;;;;5054484;28;20431;-73
2023/04/22 00:04:42;;;;;;;20.33;13.18;;;;;;;;;;5048742;28;20033;-74
2023/04/22 00:07:08;;;;;;;19.02;12.13;;;;;;;;;;5044089;28;20040;-74
2023/04/22 00:09:34;;;;;;;20.95;12.13;;;;;;;;;;5042655;28;20026;-73
2023/04/22 00:12:01;;;;;;;19.13;10.00;;;;;;;;;;5048926;28;20025;-73
2023/04/22 00:14:27;;;;;;;21.77;11.70;;;;;;;;;;5047311;28;20025;-73
2023/04/22 00:16:53;;;;;;;24.70;13.05;;;;;;;;;;5041069;28;20036;-74
2023/04/22 00:19:21;;;;;;;18.17;11.25;;;;;;;;;;5039262;28;20033;-73
2023/04/22 00:21:47;;;;;;;22.85;12.13;;;;;;;;;;5046595;28;20390;-73
2023/04/22 00:24:13;;;;;;;24.13;12.77;;;;;;;;;;5043422;28;20064;-73
2023/04/22 00:26:39;;;;;;;20.27;11.50;;;;;;;;;;5045188;28;20218;-74
2023/04/22 00:29:05;;;;;;;27.65;13.23;;;;;;;;;;5039080;28;20498;-73
2023/04/22 00:31:31;;;;;;;17.98;10.57;;;;;;;;;;5045991;28;20499;-73
2023/04/22 00:33:57;;;;;;;18.33;11.98;;;;;;;;;;5041732;28;20120;-74
2023/04/22 00:36:23;;;;;;;20.42;12.45;;;;;;;;;;5045119;28;20032;-74
2023/04/22 00:38:52;;;;;;;21.13;12.70;;;;;;;;;;5048920;28;20029;-73
2023/04/22 00:41:19;;;;;;;23.88;11.20;;;;;;;;;;5045468;28;20021;-73
2023/04/22 00:43:45;;;;;;;24.95;11.25;;;;;;;;;;5042209;28;20106;-74
2023/04/22 00:46:11;;;;;;;26.88;12.70;;;;;;;;;;5042285;28;20021;-74
2023/04/22 00:48:38;;;;;;;19.25;10.90;;;;;;;;;;5047856;28;20024;-74
2023/04/22 00:51:05;;;;;;;19.30;11.38;;;;;;;;;;5049302;28;20596;-73
2023/04/22 00:53:31;;;;;;;20.88;10.65;;;;;;;;;;5084011;28;20039;-74
2023/04/22 00:55:57;;;;;;;17.48;11.75;;;;;;;;;;5044540;28;20073;-74
2023/04/22 00:58:25;;;;;;;16.95;10.18;;;;;;;;;;5048572;28;20403;-74
2023/04/22 01:00:51;;;;;;;17.33;9.25;;;;;;;;;;5046981;28;20025;-75
2023/04/22 01:03:19;;;;;;;21.95;10.60;;;;;;;;;;5048241;28;20108;-74
2023/04/22 01:05:46;;;;;;;16.90;10.55;;;;;;;;;;5041607;28;20025;-75
2023/04/22 01:08:12;;;;;;;19.77;10.98;;;;;;;;;;5040198;28;20075;-74
2023/04/22 01:10:38;;;;;;;15.25;10.20;;;;;;;;;;5045798;28;20040;-74
2023/04/22 01:13:04;;;;;;;16.95;10.07;;;;;;;;;;5046856;28;20070;-73
2023/04/22 01:15:30;;;;;;;15.25;9.65;;;;;;;;;;5044686;28;20373;-74
2023/04/22 01:17:57;;;;;;;14.95;9.40;;;;;;;;;;5042049;28;20041;-73
2023/04/22 01:20:23;;;;;;;16.83;9.27;;;;;;;;;;5045179;28;20032;-72
2023/04/22 01:22:50;;;;;;;19.13;9.80;;;;;;;;;;5045668;28;20025;-73
2023/04/22 01:25:16;;;;;;;16.30;9.35;;;;;;;;;;5044864;28;20028;-73
2023/04/22 01:27:43;;;;;;;17.13;11.02;;;;;;;;;;5046498;28;20104;-73
2023/04/22 01:30:10;;;;;;;18.27;10.95;;;;;;;;;;5042511;28;20029;-73
2023/04/22 01:32:36;;;;;;;22.58;10.85;;;;;;;;;;5043760;28;20407;-74
2023/04/22 01:35:02;;;;;;;21.73;11.32;;;;;;;;;;5039712;28;20025;-73
2023/04/22 01:37:29;;;;;;;21.17;10.18;;;;;;;;;;5045049;28;20037;-73
2023/04/22 01:39:56;;;;;;;18.13;10.50;;;;;;;;;;5045515;28;20035;-74
2023/04/22 01:42:22;;;;;;;21.10;10.75;;;;;;;;;;5044867;28;20017;-72
2023/04/22 01:44:49;;;;;;;20.08;10.60;;;;;;;;;;5032584;28;20099;-74
2023/04/22 01:47:15;;;;;;;21.23;11.18;;;;;;;;;;5045837;28;20029;-73
2023/04/22 01:49:41;;;;;;;18.85;12.32;;;;;;;;;;5048157;28;20131;-74
2023/04/22 01:52:07;;;;;;;20.60;11.43;;;;;;;;;;5041025;28;20028;-74
2023/04/22 01:54:33;;;;;;;18.42;11.68;;;;;;;;;;5042619;28;20123;-74
2023/04/22 01:57:00;;;;;;;18.02;11.27;;;;;;;;;;5045499;28;20053;-74
2023/04/22 01:59:26;;;;;;;21.48;11.00;;;;;;;;;;5045019;28;20021;-74
2023/04/22 02:01:53;;;;;;;16.33;10.98;;;;;;;;;;5043657;28;20471;-73
2023/04/22 02:04:19;;;;;;;15.00;11.52;;;;;;;;;;5043636;28;20332;-73
2023/04/22 02:06:45;;;;;;;26.40;12.45;;;;;;;;;;5045632;28;20029;-74
2023/04/22 02:09:11;;;;;;;21.90;11.13;;;;;;;;;;5044808;28;20116;-74
2023/04/22 02:11:37;;;;;;;22.20;12.70;;;;;;;;;;5035612;28;20056;-74
2023/04/22 02:14:03;;;;;;;21.02;11.18;;;;;;;;;;5042628;28;20068;-73
2023/04/22 02:16:29;;;;;;;17.58;11.52;;;;;;;;;;5045933;28;20029;-74
2023/04/22 02:18:55;;;;;;;17.92;11.82;;;;;;;;;;5031685;28;20033;-74
2023/04/22 02:21:21;;;;;;;18.00;11.18;;;;;;;;;;5042294;28;20040;-74
2023/04/22 02:23:47;;;;;;;18.08;11.32;;;;;;;;;;5045916;28;20379;-75
2023/04/22 02:26:13;;;;;;;21.63;11.35;;;;;;;;;;5044743;28;20088;-74
2023/04/22 02:28:40;;;;;;;20.85;11.95;;;;;;;;;;5033815;28;20041;-73
2023/04/22 02:31:06;;;;;;;21.25;13.15;;;;;;;;;;5049178;28;20036;-74
2023/04/22 02:33:32;;;;;;;23.23;12.48;;;;;;;;;;5044084;28;20053;-73
2023/04/22 02:35:58;;;;;;;23.58;13.40;;;;;;;;;;5055453;28;20032;-74
2023/04/22 02:38:24;;;;;;;20.00;12.48;;;;;;;;;;5044636;28;20498;-76
2023/04/22 02:40:50;;;;;;;20.60;12.13;;;;;;;;;;5040727;28;20036;-76
2023/04/22 02:43:16;;;;;;;21.88;13.25;;;;;;;;;;5048694;28;20036;-75
2023/04/22 02:45:42;;;;;;;21.73;12.30;;;;;;;;;;5047071;28;20021;-74
2023/04/22 02:48:09;;;;;;;23.13;12.15;;;;;;;;;;5044006;28;20494;-75
2023/04/22 02:50:35;;;;;;;21.58;11.57;;;;;;;;;;5043215;28;20036;-73
2023/04/22 02:53:01;;;;;;;22.90;13.48;;;;;;;;;;5046913;28;20029;-73
2023/04/22 02:55:27;;;;;;;22.05;12.02;;;;;;;;;;5039888;28;20128;-73
2023/04/22 02:57:53;;;;;;;21.50;12.35;;;;;;;;;;5045463;28;20108;-73
2023/04/22 03:00:19;;;;;;;17.30;11.43;;;;;;;;;;5047706;28;20013;-74
2023/04/22 03:02:45;;;;;;;21.02;11.95;;;;;;;;;;5045924;28;20032;-73
2023/04/22 03:05:11;;;;;;;21.00;11.90;;;;;;;;;;5036475;28;20025;-73
2023/04/22 03:07:37;;;;;;;20.13;12.95;;;;;;;;;;5046508;28;20029;-74
2023/04/22 03:10:03;;;;;;;22.98;11.75;;;;;;;;;;5047862;28;20107;-75
2023/04/22 03:12:29;;;;;;;19.48;11.90;;;;;;;;;;5044383;28;20033;-73
2023/04/22 03:14:56;;;;;;;22.63;13.02;;;;;;;;;;5046470;28;20047;-74
2023/04/22 03:17:22;;;;;;;20.70;12.43;;;;;;;;;;5047598;28;20068;-73
2023/04/22 03:19:48;;;;;;;21.40;12.07;;;;;;;;;;5047716;28;20078;-74
2023/04/22 03:22:14;;;;;;;24.10;11.35;;;;;;;;;;5044568;28;20376;-74
2023/04/22 03:24:40;;;;;;;20.85;12.07;;;;;;;;;;5078815;28;20072;-74
2023/04/22 03:27:06;;;;;;;18.17;11.70;;;;;;;;;;5045931;28;20033;-74
2023/04/22 03:29:32;;;;;;;24.13;12.40;;;;;;;;;;5047078;28;20044;-73
2023/04/22 03:31:58;;;;;;;18.55;12.27;;;;;;;;;;5045538;28;20044;-74
2023/04/22 03:34:24;;;;;;;16.63;12.13;;;;;;;;;;5049308;28;20021;-73
2023/04/22 03:36:50;;;;;;;20.10;13.05;;;;;;;;;;5046522;28;20502;-73
2023/04/22 03:39:16;;;;;;;21.75;12.35;;;;;;;;;;5046651;28;20029;-73
2023/04/22 03:41:42;;;;;;;18.02;11.68;;;;;;;;;;5043442;28;20390;-75
2023/04/22 03:44:09;;;;;;;27.40;11.70;;;;;;;;;;5040977;28;20056;-73
2023/04/22 03:46:35;;;;;;;19.23;11.45;;;;;;;;;;5045514;28;20028;-73
2023/04/22 03:49:01;;;;;;;18.55;12.68;;;;;;;;;;5043135;28;20037;-74
2023/04/22 03:51:27;;;;;;;19.35;11.90;;;;;;;;;;5041638;28;20482;-74
2023/04/22 03:53:54;;;;;;;19.80;11.63;;;;;;;;;;5046625;28;20067;-73
2023/04/22 03:56:20;;;;;;;20.05;12.80;;;;;;;;;;5045169;28;20226;-73
2023/04/22 03:58:46;;;;;;;21.95;12.88;;;;;;;;;;5049266;28;20050;-73
2023/04/22 04:01:12;;;;;;;21.30;12.93;;;;;;;;;;5052652;28;20017;-74
2023/04/22 04:03:38;;;;;;;22.02;13.55;;;;;;;;;;5043424;28;20025;-73
2023/04/22 04:06:04;;;;;;;24.88;13.27;;;;;;;;;;5051522;28;20048;-74
2023/04/22 04:08:30;;;;;;;19.30;12.20;;;;;;;;;;5039891;28;20025;-74
2023/04/22 04:10:56;;;;;;;22.40;12.75;;;;;;;;;;5048937;28;20568;-74
2023/04/22 04:13:22;;;;;;;20.65;12.20;;;;;;;;;;5044019;28;20021;-74
2023/04/22 04:15:48;;;;;;;20.05;12.63;;;;;;;;;;5048291;28;20104;-74
2023/04/22 04:18:14;;;;;;;22.33;12.73;;;;;;;;;;5049246;28;20416;-74
2023/04/22 04:20:40;;;;;;;19.50;13.68;;;;;;;;;;5042317;28;20573;-74
2023/04/22 04:23:06;;;;;;;20.63;12.45;;;;;;;;;;5045370;28;20024;-74
2023/04/22 04:25:37;;;;;;;18.77;11.68;;;;;;;;;;5046373;28;20063;-74
2023/04/22 04:28:10;;;;;;;22.15;12.73;;;;;;;;;;5041480;28;20029;-74
2023/04/22 04:30:36;;;;;;;17.90;10.65;;;;;;;;;;5046277;28;20064;-73
2023/04/22 04:33:05;;;;;;;20.70;11.90;;;;;;;;;;5052151;28;20024;-74
2023/04/22 04:35:35;;;;;;;22.45;12.20;;;;;;;;;;5042272;28;20037;-75
2023/04/22 04:38:01;;;;;;;14.95;11.23;;;;;;;;;;5046088;28;20415;-74
2023/04/22 04:40:30;;;;;;;20.50;11.65;;;;;;;;;;5045933;28;20641;-74
2023/04/22 04:42:56;;;;;;;18.98;10.80;;;;;;;;;;5044950;28;20448;-73
2023/04/22 04:45:23;;;;;;;19.83;12.23;;;;;;;;;;5044260;28;20113;-73
2023/04/22 04:47:51;;;;;;;18.70;12.20;;;;;;;;;;5047120;28;20375;-73
2023/04/22 04:50:18;;;;;;;17.02;11.05;;;;;;;;;;5043298;28;20029;-73
2023/04/22 04:52:45;;;;;;;21.85;11.60;;;;;;;;;;5047704;28;20033;-72
2023/04/22 04:55:11;;;;;;;23.58;12.40;;;;;;;;;;5045280;28;20126;-73
2023/04/22 04:57:37;;;;;;;17.45;12.85;;;;;;;;;;5044122;28;20032;-72
2023/04/22 05:00:03;;;;;;;19.60;12.55;;;;;;;;;;5044673;28;20036;-74
2023/04/22 05:02:29;;;;;;;20.75;12.25;;;;;;;;;;5044176;28;20032;-74
2023/04/22 05:04:55;;;;;;;18.92;11.52;;;;;;;;;;5046126;28;20033;-74
2023/04/22 05:07:21;;;;;;;22.42;12.52;;;;;;;;;;5043113;28;20365;-75
2023/04/22 05:09:47;;;;;;;19.13;11.57;;;;;;;;;;5043457;28;20495;-75
2023/04/22 05:12:14;;;;;;;19.40;11.73;;;;;;;;;;5038037;28;20471;-76
2023/04/22 05:14:40;;;;;;;20.77;12.95;;;;;;;;;;5042644;28;20147;-75
2023/04/22 05:17:07;;;;;;;16.67;11.57;;;;;;;;;;5044940;28;20029;-74
2023/04/22 05:19:33;;;;;;;19.27;12.10;;;;;;;;;;5037430;28;20032;-73
2023/04/22 05:21:59;;;;;;;24.90;13.23;;;;;;;;;;5041911;28;20511;-73
2023/04/22 05:24:25;;;;;;;18.98;12.00;;;;;;;;;;5046090;28;20560;-73
2023/04/22 05:26:51;;;;;;;21.55;11.50;;;;;;;;;;5045533;28;20091;-74
2023/04/22 05:29:17;;;;;;;18.67;12.00;;;;;;;;;;5043804;28;20041;-74
2023/04/22 05:31:43;;;;;;;20.05;12.23;;;;;;;;;;5044324;28;20094;-74
2023/04/22 05:34:10;;;;;;;20.27;12.27;;;;;;;;;;5043371;28;20025;-73
2023/04/22 05:36:36;;;;;;;24.05;12.35;;;;;;;;;;5041652;28;20036;-73
2023/04/22 05:39:03;;;;;;;23.60;12.93;;;;;;;;;;5047039;28;20478;-73
2023/04/22 05:41:29;;;;;;;19.23;12.35;;;;;;;;;;5042082;28;20040;-73
2023/04/22 05:43:55;;;;;;;21.65;12.98;;;;;;;;;;5044171;28;20017;-73
2023/04/22 05:46:21;;;;;;;20.77;12.70;;;;;;;;;;5043393;28;20035;-74
2023/04/22 05:48:47;;;;;;;19.67;11.55;;;;;;;;;;5041367;28;20438;-73
2023/04/22 05:51:13;;;;;;;18.20;11.82;;;;;;;;;;5042206;28;20032;-74
2023/04/22 05:53:39;;;;;;;21.33;12.75;;;;;;;;;;5045089;28;20033;-73
2023/04/22 05:56:06;;;;;;;23.13;11.98;;;;;;;;;;5044255;28;20071;-73
2023/04/22 05:58:32;;;;;;;24.13;13.50;;;;;;;;;;5043945;28;20033;-73
2023/04/22 06:00:58;;;;;;;23.02;12.70;;;;;;;;;;5044631;28;20032;-74
2023/04/22 06:03:24;;;;;;;25.27;12.60;;;;;;;;;;5041490;28;20044;-74
2023/04/22 06:05:50;;;;;;;18.90;12.48;;;;;;;;;;5044172;28;20428;-74
2023/04/22 06:08:16;;;;;;;18.75;12.23;;;;;;;;;;5044920;28;20033;-74
2023/04/22 06:10:42;;;;;;;21.27;11.40;;;;;;;;;;5040034;28;20103;-75
2023/04/22 06:13:08;;;;;;;20.88;12.38;;;;;;;;;;5042745;28;20025;-75
2023/04/22 06:15:35;;;;;;;24.30;12.50;;;;;;;;;;5037023;28;20036;-76
2023/04/22 06:18:01;;;;;;;20.40;12.73;;;;;;;;;;5043493;28;20057;-73
2023/04/22 06:20:27;;;;;;;25.58;12.40;;;;;;;;;;5043238;28;20394;-74
2023/04/22 06:22:53;;;;;;;22.70;12.52;;;;;;;;;;5046087;28;20186;-73
2023/04/22 06:25:19;;;;;;;26.38;12.55;;;;;;;;;;5045959;28;20028;-73
2023/04/22 06:27:45;;;;;;;22.58;12.75;;;;;;;;;;5047444;28;20483;-74
2023/04/22 06:30:11;;;;;;;26.40;12.98;;;;;;;;;;5037280;28;20131;-75
2023/04/22 06:32:37;;;;;;;22.63;13.07;;;;;;;;;;5044690;28;20419;-74
2023/04/22 06:35:04;;;;;;;25.27;11.85;;;;;;;;;;5046081;28;20055;-72
2023/04/22 06:37:31;;;;;;;20.17;13.38;;;;;;;;;;5049769;28;20156;-74
2023/04/22 06:39:57;;;;;;;20.50;12.55;;;;;;;;;;5036340;28;20033;-74
2023/04/22 06:42:23;;;;;;;20.58;11.95;;;;;;;;;;5046399;28;20104;-75
2023/04/22 06:44:49;;;;;;;21.83;12.68;;;;;;;;;;5044423;28;20443;-75
2023/04/22 06:47:15;;;;;;;21.75;12.93;;;;;;;;;;5040693;28;20078;-74
2023/04/22 06:49:43;;;;;;;20.48;11.52;;;;;;;;;;5043405;28;20064;-72
2023/04/22 06:52:10;;;;;;;20.52;11.63;;;;;;;;;;5045207;28;20037;-73
2023/04/22 06:54:37;;;;;;;15.95;10.93;;;;;;;;;;5045148;28;20072;-72
2023/04/22 06:57:03;;;;;;;18.85;12.52;;;;;;;;;;5045626;28;20407;-74
2023/04/22 06:59:29;;;;;;;19.60;11.80;;;;;;;;;;5043698;28;20031;-74
2023/04/22 07:01:55;;;;;;;22.13;13.88;;;;;;;;;;5044586;28;20098;-74
2023/04/22 07:04:22;;;;;;;20.90;11.65;;;;;;;;;;5054736;28;20032;-73
2023/04/22 07:06:48;;;;;;;22.08;11.57;;;;;;;;;;5046297;28;20497;-73
2023/04/22 07:09:14;;;;;;;21.35;11.35;;;;;;;;;;5041933;28;20025;-73
2023/04/22 07:11:40;;;;;;;19.08;11.20;;;;;;;;;;5033712;28;20040;-74
2023/04/22 07:14:06;;;;;;;18.38;9.73;;;;;;;;;;5040547;28;20557;-74
2023/04/22 07:16:32;;;;;;;15.40;10.35;;;;;;;;;;5047340;28;20029;-74
2023/04/22 07:18:58;;;;;;;15.20;9.10;;;;;;;;;;5049538;28;20238;-73
2023/04/22 07:21:25;;;;;;;17.95;8.50;;;;;;;;;;5048791;28;20017;-73
2023/04/22 07:23:51;;;;;;;13.50;8.38;;;;;;;;;;5044432;28;20021;-73
2023/04/22 07:26:17;;;;;;;13.10;6.28;;;;;;;;;;5048264;28;20025;-73
2023/04/22 07:28:44;;;;;;;11.18;5.93;;;;;;;;;;5046081;28;20486;-73
2023/04/22 07:31:10;;;;;;;11.05;6.40;;;;;;;;;;5055681;28;20036;-74
2023/04/22 07:33:36;;;;;;;10.05;6.35;;;;;;;;;;5048509;28;20048;-73
2023/04/22 07:36:02;;;;;;;12.65;6.57;;;;;;;;;;5043556;28;20109;-73
2023/04/22 07:38:28;;;;;;;10.23;5.95;;;;;;;;;;5044733;28;20029;-74
2023/04/22 07:40:54;;;;;;;10.00;4.70;;;;;;;;;;5046793;28;20020;-74
2023/04/22 07:43:20;;;;;;;12.18;5.00;;;;;;;;;;5048561;28;20057;-73
2023/04/22 07:45:46;;;;;;;5.55;4.43;;;;;;;;;;5048492;28;20014;-72
2023/04/22 07:48:12;;;;;;;7.80;4.57;;;;;;;;;;5048386;28;20037;-73
2023/04/22 07:50:38;;;;;;;8.48;4.68;;;;;;;;;;5045543;28;20033;-73
2023/04/22 07:53:04;;;;;;;5.45;4.13;;;;;;;;;;5049249;28;20036;-73
2023/04/22 07:55:31;;;;;;;6.53;4.53;;;;;;;;;;5038133;28;20055;-74
2023/04/22 07:57:59;;;;;;;6.40;4.72;;;;;;;;;;5044302;28;20174;-74
2023/04/22 08:00:25;;;;;;;6.38;5.35;;;;;;;;;;5037234;28;20021;-74
2023/04/22 08:02:52;;;;;;;7.95;4.70;;;;;;;;;;5044038;28;20340;-74
2023/04/22 08:05:18;;;;;;;7.90;5.32;;;;;;;;;;5044667;28;20017;-74
2023/04/22 08:07:45;;;;;;;10.93;4.68;;;;;;;;;;5043728;28;20028;-74
2023/04/22 08:10:11;;;;;;;5.88;4.03;;;;;;;;;;5044018;28;20103;-73
2023/04/22 08:12:37;;;;;;;6.47;4.05;;;;;;;;;;5040317;28;20021;-75
2023/04/22 08:15:03;;;;;;;4.88;4.10;;;;;;;;;;5042705;28;20032;-74
2023/04/22 08:17:29;;;;;;;9.15;4.72;;;;;;;;;;5047653;28;20029;-73
2023/04/22 08:19:56;;;;;;;7.78;4.78;;;;;;;;;;5042769;28;20112;-73
2023/04/22 08:22:22;;;;;;;9.82;4.50;;;;;;;;;;5036669;28;20505;-73
2023/04/22 08:24:48;;;;;;;10.88;5.07;;;;;;;;;;5049645;28;20025;-73
2023/04/22 08:27:15;;;;;;;7.97;4.95;;;;;;;;;;5047767;28;20033;-73
2023/04/22 08:29:41;;;;;;;10.38;5.72;;;;;;;;;;5051658;28;20025;-73
2023/04/22 08:32:07;;;;;;;8.63;5.18;;;;;;;;;;5049488;28;20035;-73
2023/04/22 08:34:33;;;;;;;7.68;5.10;;;;;;;;;;5049323;28;20052;-74
2023/04/22 08:36:59;;;;;;;7.15;4.65;;;;;;;;;;5040311;28;20036;-74
2023/04/22 08:39:25;;;;;;;6.07;3.85;;;;;;;;;;5049732;28;20100;-73
2023/04/22 08:41:51;;;;;;;6.10;4.45;;;;;;;;;;5037695;28;20099;-73
2023/04/22 08:44:18;;;;;;;5.60;4.00;;;;;;;;;;5047425;28;20038;-73
2023/04/22 08:46:45;;;;;;;5.97;4.53;;;;;;;;;;5047131;28;20078;-73
2023/04/22 08:49:14;;;;;;;7.75;3.95;;;;;;;;;;5047065;28;20479;-73
2023/04/22 08:51:40;;;;;;;8.77;4.63;;;;;;;;;;5043155;28;20021;-73
2023/04/22 08:54:06;;;;;;;8.98;5.10;;;;;;;;;;5046257;28;20179;-72
2023/04/22 08:56:33;;;;;;;16.92;7.80;;;;;;;;;;5042418;28;20561;-73
2023/04/22 08:59:00;;;;;;;7.40;4.60;;;;;;;;;;5044306;28;20025;-72
2023/04/22 09:01:27;;;;;;;6.05;4.93;;;;;;;;;;5048177;28;20029;-74
2023/04/22 09:03:54;;;;;;;6.80;4.70;;;;;;;;;;5047380;28;20058;-73
2023/04/22 09:06:20;;;;;;;9.57;4.45;;;;;;;;;;5047203;28;20506;-73
2023/04/22 09:08:49;;;;;;;7.15;4.85;;;;;;;;;;5041852;28;20033;-72
2023/04/22 09:11:16;;;;;;;9.75;4.38;;;;;;;;;;5043181;28;20090;-72
2023/04/22 09:13:42;;;;;;;8.13;5.22;;;;;;;;;;5047547;28;20029;-72
2023/04/22 09:16:09;;;;;;;7.90;4.80;;;;;;;;;;5049307;28;20395;-73
2023/04/22 09:18:42;;;;;;;9.95;4.97;;;;;;;;;;5046951;28;20462;-70
2023/04/22 09:21:08;;;;;;;7.90;5.50;;;;;;;;;;5045977;28;20490;-71
2023/04/22 09:23:43;;;;;;;10.02;5.47;;;;;;;;;;5047202;28;20021;-72
2023/04/22 09:26:09;;;;;;;9.95;5.18;;;;;;;;;;5049339;28;20025;-72
2023/04/22 09:28:36;;;;;;;6.47;4.75;;;;;;;;;;5040017;28;20079;-72
2023/04/22 09:31:03;;;;;;;10.20;5.78;;;;;;;;;;5048442;28;20033;-71
2023/04/22 09:33:30;;;;;;;12.85;6.65;;;;;;;;;;5045712;28;20384;-72
2023/04/22 09:35:56;;;;;;;8.68;5.90;;;;;;;;;;5049406;28;20029;-74
2023/04/22 09:38:22;;;;;;;8.88;5.07;;;;;;;;;;5045518;28;20021;-73
2023/04/22 09:40:49;;;;;;;7.90;4.93;;;;;;;;;;5045883;28;20724;-72
2023/04/22 09:43:18;;;;;;;9.25;5.43;;;;;;;;;;5040747;28;20075;-72
2023/04/22 09:45:44;;;;;;;8.68;5.57;;;;;;;;;;5046994;28;20402;-73
2023/04/22 09:48:28;;;;;;;9.02;4.53;;;;;;;;;;5046577;28;20033;-73
2023/04/22 09:50:54;;;;;;;11.45;4.93;;;;;;;;;;5041474;28;20051;-73
2023/04/22 09:53:21;;;;;;;10.02;5.00;;;;;;;;;;5046011;28;20144;-73
2023/04/22 09:55:51;;;;;;;11.95;5.20;;;;;;;;;;5031913;28;20068;-72
2023/04/22 09:58:18;;;;;;;6.45;4.68;;;;;;;;;;5041091;28;20359;-73
2023/04/22 10:00:53;;;;;;;9.10;5.60;;;;;;;;;;5042261;28;20344;-73
2023/04/22 10:03:19;;;;;;;12.07;6.63;;;;;;;;;;5038021;28;20025;-72
2023/04/22 10:05:45;;;;;;;13.38;5.22;;;;;;;;;;5046165;28;20037;-73
2023/04/22 10:08:13;;;;;;;7.38;5.22;;;;;;;;;;5047610;28;20029;-72
2023/04/22 10:10:39;;;;;;;10.20;5.05;;;;;;;;;;5045657;28;20021;-73
2023/04/22 10:13:06;;;;;;;8.35;5.95;;;;;;;;;;5037512;28;20490;-72
2023/04/22 10:15:34;;;;;;;8.80;4.47;;;;;;;;;;5046138;28;20024;-73
2023/04/22 10:18:01;;;;;;;8.32;4.30;;;;;;;;;;5035165;28;20052;-73
2023/04/22 10:20:28;;;;;;;7.05;5.30;;;;;;;;;;5041524;28;20053;-72
2023/04/22 10:22:55;;;;;;;7.53;5.38;;;;;;;;;;5043442;28;20505;-74
2023/04/22 10:25:25;;;;;;;7.82;6.15;;;;;;;;;;5052936;28;20504;-73
2023/04/22 10:28:02;;;;;;;10.02;6.22;;;;;;;;;;5051908;28;20025;-73
2023/04/22 10:30:31;;;;;;;8.65;6.35;;;;;;;;;;5041696;28;20029;-74
2023/04/22 10:33:16;;;;;;;12.00;7.47;;;;;;;;;;5047810;28;20037;-73
2023/04/22 10:36:02;;;;;;;12.20;7.70;;;;;;;;;;5042530;28;20033;-72
2023/04/22 10:38:28;;;;;;;;;;;;;;;;;;5042654;28;20391;-73
2023/04/22 10:41:02;;;;;;;10.23;6.75;;;;;;;;;;5046887;28;19912;-73
2023/04/22 10:43:41;;;;;;;10.63;8.20;;;;;;;;;;5046623;28;20024;-73
2023/04/22 10:46:07;;;;;;;13.85;7.80;;;;;;;;;;5040189;28;20040;-73
2023/04/22 10:48:49;;;;;;;10.00;7.60;;;;;;;;;;5035228;28;20049;-73
2023/04/22 10:51:34;;;;;;;11.63;7.90;;;;;;;;;;5046172;28;20021;-72
2023/04/22 10:54:01;;;;;;;8.63;6.57;;;;;;;;;;5046079;28;20040;-73
2023/04/22 10:56:27;;;;;;;9.50;7.00;;;;;;;;;;5048471;28;20061;-74
2023/04/22 10:58:55;;;;;;;8.68;6.32;;;;;;;;;;5062843;28;20035;-72
2023/04/22 11:01:21;;;;;;;9.13;6.47;;;;;;;;;;5049648;28;20078;-73
2023/04/22 11:03:48;;;;;;;8.38;6.88;;;;;;;;;;5046778;28;20022;-73
2023/04/22 11:06:15;;;;;;;10.20;6.95;;;;;;;;;;5052376;28;20031;-73
2023/04/22 11:08:50;;;;;;;8.02;6.07;;;;;;;;;;5045606;28;20021;-73
2023/04/22 11:11:17;;;;;;;9.90;6.30;;;;;;;;;;5044754;28;20479;-73
2023/04/22 11:13:44;;;;;;;9.82;7.18;;;;;;;;;;5048955;28;20028;-73
2023/04/22 11:16:10;;;;;;;8.38;6.07;;;;;;;;;;5049570;28;20052;-73
2023/04/22 11:18:37;;;;;;;9.57;6.75;;;;;;;;;;5047412;28;20020;-73
2023/04/22 11:21:05;;;;;;;9.13;6.38;;;;;;;;;;5046859;28;20033;-73
2023/04/22 11:23:31;;;;;;;9.63;6.30;;;;;;;;;;5039754;28;20053;-72
2023/04/22 11:25:59;;;;;;;8.60;6.05;;;;;;;;;;5052193;28;20482;-72
2023/04/22 11:28:29;;;;;;;8.40;5.72;;;;;;;;;;5050279;28;20025;-71
2023/04/22 11:31:02;;;;;;;6.68;5.18;;;;;;;;;;5049753;28;20586;-72
2023/04/22 11:33:29;;;;;;;10.50;5.50;;;;;;;;;;5051776;28;20028;-72
2023/04/22 11:35:57;;;;;;;8.98;5.35;;;;;;;;;;5043570;28;20564;-72
2023/04/22 11:38:23;;;;;;;5.65;4.53;;;;;;;;;;5052448;28;20597;-73
2023/04/22 11:40:49;;;;;;;5.68;4.22;;;;;;;;;;5047278;28;20021;-72
2023/04/22 11:43:17;;;;;;;6.88;5.07;;;;;;;;;;5051103;28;20092;-72
2023/04/22 11:45:43;;;;;;;6.45;5.18;;;;;;;;;;5043964;28;20052;-72
2023/04/22 11:48:10;;;;;;;6.65;5.55;;;;;;;;;;5044301;28;20105;-71
2023/04/22 11:50:37;;;;;;;7.95;6.03;;;;;;;;;;5047675;28;20024;-72
2023/04/22 11:53:05;;;;;;;6.43;5.28;;;;;;;;;;5051986;28;20060;-73
2023/04/22 11:55:35;;;;;;;7.78;6.20;;;;;;;;;;5045680;28;20037;-73
2023/04/22 11:58:09;;;;;;;6.38;4.93;;;;;;;;;;5050807;28;20096;-72
2023/04/22 12:00:36;;;;;;;6.10;4.80;;;;;;;;;;5048787;28;20025;-73
2023/04/22 12:03:22;;;;;;;5.75;4.40;;;;;;;;;;5049012;28;20025;-71
2023/04/22 12:05:59;;;;;;;6.85;4.70;;;;;;;;;;5049189;28;20393;-74
2023/04/22 12:08:30;;;;;;;6.03;4.40;;;;;;;;;;5048000;28;20060;-73
2023/04/22 12:10:57;;;;;;;5.70;4.57;;;;;;;;;;5044655;28;20056;-72
2023/04/22 12:13:25;;;;;;;5.85;4.22;;;;;;;;;;5045881;28;20352;-72
2023/04/22 12:15:55;;;;;;;7.20;4.78;;;;;;;;;;5052521;28;20058;-73
2023/04/22 12:18:34;;;;;;;9.95;6.13;;;;;;;;;;5044055;28;20037;-72
2023/04/22 12:21:07;;;;;;;5.65;4.20;;;;;;;;;;5054512;28;20376;-73
2023/04/22 12:23:42;;;;;;;5.32;4.65;;;;;;;;;;5053955;28;20025;-72
2023/04/22 12:26:08;;;;;;;7.88;5.13;;;;;;;;;;5052215;28;20426;-72
2023/04/22 12:28:34;;;;;;;7.07;5.35;;;;;;;;;;5040492;28;20055;-73
2023/04/22 12:31:00;;;;;;;13.98;7.55;;;;;;;;;;5052445;28;20542;-73
2023/04/22 12:33:26;;;;;;;7.93;6.85;;;;;;;;;;5046222;28;20444;-72
2023/04/22 12:35:52;;;;;;;11.27;9.30;;;;;;;;;;5051501;28;20438;-72
2023/04/22 12:38:19;;;;;;;12.98;8.52;;;;;;;;;;5046949;28;20024;-73
2023/04/22 12:40:45;;;;;;;16.77;13.27;;;;;;;;;;5049529;28;20049;-73
2023/04/22 12:43:11;;;;;;;13.23;10.07;;;;;;;;;;5041150;28;20021;-74
2023/04/22 12:45:38;;;;;;;8.18;6.25;;;;;;;;;;5041120;28;20025;-72
2023/04/22 12:48:04;;;;;;;6.80;5.63;;;;;;;;;;5045834;28;20036;-73
2023/04/22 12:50:30;;;;;;;6.80;5.00;;;;;;;;;;5051386;28;20846;-73
2023/04/22 12:52:56;;;;;;;7.05;5.13;;;;;;;;;;5046817;28;20642;-73
2023/04/22 12:55:22;;;;;;;5.90;4.93;;;;;;;;;;5048750;28;20456;-72
2023/04/22 12:57:50;;;;;;;5.93;4.45;;;;;;;;;;5049657;28;20074;-72
2023/04/22 13:00:16;;;;;;;6.72;5.05;;;;;;;;;;5049695;28;20036;-73
2023/04/22 13:02:46;;;;;;;9.32;5.03;;;;;;;;;;5046301;28;20021;-73
2023/04/22 13:05:12;;;;;;;7.72;5.30;;;;;;;;;;5043269;28;20098;-73
2023/04/22 13:07:40;;;;;;;6.50;5.40;;;;;;;;;;5045489;28;20025;-73
2023/04/22 13:10:07;;;;;;;7.10;5.28;;;;;;;;;;5038527;28;20028;-72
2023/04/22 13:12:33;;;;;;;7.22;5.32;;;;;;;;;;5036521;28;20032;-73
2023/04/22 13:15:00;;;;;;;7.10;5.55;;;;;;;;;;5039845;28;20033;-72
2023/04/22 13:17:26;;;;;;;7.53;5.85;;;;;;;;;;5040477;28;20065;-73
2023/04/22 13:19:52;;;;;;;6.80;5.55;;;;;;;;;;5044813;28;20070;-72
2023/04/22 13:22:18;;;;;;;6.78;5.40;;;;;;;;;;5037848;28;20272;-73
2023/04/22 13:24:45;;;;;;;8.15;5.80;;;;;;;;;;5041606;28;20104;-73
2023/04/22 13:27:11;;;;;;;7.85;6.05;;;;;;;;;;5038824;28;20027;-73
2023/04/22 13:29:37;;;;;;;9.13;6.75;;;;;;;;;;5051399;28;20033;-73
2023/04/22 13:32:04;;;;;;;9.00;7.20;;;;;;;;;;5053733;28;20033;-74
2023/04/22 13:34:30;;;;;;;12.65;7.15;;;;;;;;;;5049210;28;20375;-72
2023/04/22 13:36:57;;;;;;;8.07;6.63;;;;;;;;;;5040614;28;20033;-73
2023/04/22 13:39:24;;;;;;;8.57;6.53;;;;;;;;;;5046128;28;20009;-72
2023/04/22 13:41:50;;;;;;;10.82;7.15;;;;;;;;;;5038987;28;20025;-73
2023/04/22 13:44:16;;;;;;;9.00;6.93;;;;;;;;;;5036424;28;20037;-73
2023/04/22 13:46:43;;;;;;;8.60;6.45;;;;;;;;;;5041541;28;20077;-73
2023/04/22 13:49:10;;;;;;;10.05;6.90;;;;;;;;;;5043052;28;20454;-71
2023/04/22 13:51:36;;;;;;;9.07;7.10;;;;;;;;;;5043189;28;20031;-74
2023/04/22 13:54:03;;;;;;;8.45;6.53;;;;;;;;;;5048139;28;20029;-74
2023/04/22 13:56:30;;;;;;;9.50;7.20;;;;;;;;;;5043144;28;20119;-73
2023/04/22 13:58:56;;;;;;;10.32;6.72;;;;;;;;;;5042513;28;20045;-72
2023/04/22 14:01:23;;;;;;;8.80;6.63;;;;;;;;;;5040273;28;20111;-73
2023/04/22 14:03:50;;;;;;;9.25;6.72;;;;;;;;;;5039756;28;20048;-75
2023/04/22 14:06:16;;;;;;;9.75;6.65;;;;;;;;;;5042545;28;20024;-74
2023/04/22 14:08:42;;;;;;;9.25;6.90;;;;;;;;;;5040809;28;20447;-72
2023/04/22 14:11:08;;;;;;;9.25;6.82;;;;;;;;;;5045548;28;20044;-72
2023/04/22 14:13:35;;;;;;;9.57;6.05;;;;;;;;;;5040874;28;20386;-73
2023/04/22 14:16:02;;;;;;;7.90;6.30;;;;;;;;;;5041863;28;20110;-73
2023/04/22 14:18:28;;;;;;;10.05;6.45;;;;;;;;;;5046266;28;20036;-73
2023/04/22 14:20:55;;;;;;;7.05;5.82;;;;;;;;;;5036799;28;20025;-74
2023/04/22 14:23:21;;;;;;;9.32;6.15;;;;;;;;;;5038906;28;20291;-75
2023/04/22 14:25:48;;;;;;;9.18;5.35;;;;;;;;;;5050572;28;20100;-74
2023/04/22 14:28:15;;;;;;;8.57;5.93;;;;;;;;;;5056739;28;20025;-75